Details From LEJR - Jerez
To GEML - MELILLA
Flight Number -
Tags generated
Created
Modified
Stats Distance 175 nm / 323 km
Max Altitude 23,100 ft / 7,041 m
Waypoints 3
Social Downloads 0
Likes 0
Share VATSIM

Download

Looking for another format? Having issues loading an existing format? Contact us
Advertisement - Login to hide

Notes

Basic altitude profile: - Ascent Rate: 2500ft/min - Ascent Speed: 250kts - Cruise Altitude: 35000ft - Cruise Speed: 420kts - Descent Rate: 1500ft/min - Descent Speed: 250kts Options: - Use NATs: yes - Use PACOTS: yes - Use low airways: yes - Use high airways: yes

Route

LEJR PIMOS GEML

ID Type Via Altitude Latitude Longitude Leg Dist Tot Dist Heading (true) Name
O LEJR APT - 0 ft / 0 m 36.74462˚ -6.06011˚ - 0 nm - Jerez
PIMOS FIX - 23,100 ft / 7,041 m 36.15027˚ -4.89346˚ 66 nm 66 nm 122° / 123° -
O GEML APT - 0 ft / 0 m 35.28037˚ -2.95671˚ 107 nm 174 nm 118° / 120° MELILLA

Altitude Profile

Advertisement - Login to hide

Weather


0- 5 10 15 20 25 30 35+ Temperature / ° C

Clouds and Precipitation
Forecast for 2017-12-12 00:00 UTC. Updated 17 minutes ago

Ground ~20,000 ft ~40,000 ft Winds

LEJR

Details ICAO LEJR (XRY)
Name Jerez
Region Spain
Timezone Europe/Madrid (UTC+1.0)
Stats Elevation 93 ft / 28 m (AMSL)
Location 36.744622° -6.060110°
Runways 2
Magnetic Variation 1.339° W

METAR

LEJR 111930Z 28004KT 250V320 9999 FEW045 12/07 Q1007

Decode

TAF

TAF LEJR 111700Z 1118/1218 27008KT CAVOK TX14/1215Z TN02/1208Z

Decode

Departure Runways

ID Width Length Bearing (true) Bearing (mag) Surface Threshold Offset Overrun Length
02 148 ft / 45 m 7,559 ft / 2,304 m 21.34° 22.68° Asphalt 0 ft / 0 m 0 ft / 0 m
03 148 ft / 45 m 7,559 ft / 2,304 m 21.34° 22.68° Asphalt 0 ft / 0 m 0 ft / 0 m
20 148 ft / 45 m 7,559 ft / 2,304 m 201.34° 202.68° Asphalt 0 ft / 0 m 0 ft / 0 m
21 148 ft / 45 m 7,559 ft / 2,304 m 201.34° 202.68° Asphalt 0 ft / 0 m 0 ft / 0 m

GEML

Details ICAO GEML (MLN)
Name MELILLA
Region Ceuta and Melilla
Timezone Africa/Casablanca (UTC+0.0)
Stats Elevation 156 ft / 48 m (AMSL)
Location 35.280374° -2.956708°
Runways 1
Magnetic Variation 0.455° W

METAR

GEML 111930Z AUTO 26007KT 200V290 CAVOK 14/07 Q1007

Decode

TAF

TAF GEML 111400Z 1115/1215 26009KT 9999 FEW012 SCT025 TX17/1214Z TN09/1206Z PROB40 TEMPO 1115/1117 28015G28KT 4000 -RA

Decode

Destination Runways

ID Width Length Bearing (true) Bearing (mag) Surface Threshold Offset Overrun Length
15 148 ft / 45 m 4,811 ft / 1,466 m 146.39° 146.84° Asphalt 755 ft / 230 m 0 ft / 0 m
33 148 ft / 45 m 4,811 ft / 1,466 m 326.40° 326.85° Asphalt 0 ft / 0 m 0 ft / 0 m

Popular Alternatives